Agua de Fontanales, Spain

8:31 AM WEST on 四月 29, 2017 (GMT +0100)
Tejeda, Lomo de los Santos | | Change Station

高度 3609 ft 28.00 °N, 15.61 °W | Updated 5 seconds ago

所により曇
所により曇
54.1 °F
体感気温 54.1 °F
0.0
風 変数 風 から 北北東
Gusts 0.0 Mph

今日
高い -- | 低 -- °F
--% 降水確率
昨日
高い -- | 低 -- °F
Precip. -- インチ
気圧 29.98 インチ
視程 6.2 マイル
わずか 300 ft
だいたい曇 900 ft
露点温度 53 °F
湿度 96%
降水 0.00 インチ
積雪深 利用不可。
7:24 AM 8:35 PM
三日月, 11% visible
METAR GCXO 290700Z 28007KT 9999 FEW003 BKN009TCU 14/13 Q1015 NOSIG
気圧 29.98 インチ
視程 6.2 マイル
わずか 300 ft
だいたい曇 900 ft
露点温度 53 °F
湿度 96%
降水 0.00 インチ
積雪深 利用不可。
7:24 AM 8:35 PM
三日月, 11% visible
METAR GCXO 290700Z 28007KT 9999 FEW003 BKN009TCU 14/13 Q1015 NOSIG

Get Severe Weather Alerts

Thanks for signing up!

Be on the lookout for a verification email in your inbox.

You'll start receiving the daily forecast at 8 AM.

×

10-Day Weather Forecast

×

Almanac

天文

Apr. 29, 2017 入り
実時間
常用薄明
航海薄明
天文薄明
可視光の長さ
可照時間
Tomorrow will be .
, % of the Moon is Illuminated

今日の極値

Country Highs Country Lows

Community

WunderBlog® & News

Nearby

空気品質

  空気品質 大気質指数 汚染物質
Not available.

積雪深

Station Depth 高度

地震活動

Distance Mag. Time & Date
Minimum magnitude displayed is 2.5.

沿岸の水温

地名 気温

Stations

最寄りの気象観測所

観測所位置 温度 体感気温(寒さ) 露点温度 湿度 Precip. 高度 更新日時 タイプする